sensor_id;sensor_type;location;lat;lon;timestamp;temperature;humidity
23207;DHT22;11773;52.570;13.052;2023-03-04T00:00:16;4.20;99.90
23207;DHT22;11773;52.570;13.052;2023-03-04T00:02:46;4.20;99.90
23207;DHT22;11773;52.570;13.052;2023-03-04T00:05:16;4.30;99.90
23207;DHT22;11773;52.570;13.052;2023-03-04T00:07:45;4.30;99.90
23207;DHT22;11773;52.570;13.052;2023-03-04T00:10:15;4.40;99.90
23207;DHT22;11773;52.570;13.052;2023-03-04T00:12:44;4.40;99.90
23207;DHT22;11773;52.570;13.052;2023-03-04T00:15:14;4.40;99.90
23207;DHT22;11773;52.570;13.052;2023-03-04T00:17:43;4.40;99.90
23207;DHT22;11773;52.570;13.052;2023-03-04T00:20:13;4.40;99.90
23207;DHT22;11773;52.570;13.052;2023-03-04T00:22:43;4.50;99.90
23207;DHT22;11773;52.570;13.052;2023-03-04T00:25:14;4.50;99.90
23207;DHT22;11773;52.570;13.052;2023-03-04T00:27:44;4.30;99.90
23207;DHT22;11773;52.570;13.052;2023-03-04T00:30:13;4.30;99.90
23207;DHT22;11773;52.570;13.052;2023-03-04T00:32:43;4.30;99.90
23207;DHT22;11773;52.570;13.052;2023-03-04T00:35:13;4.20;99.90
23207;DHT22;11773;52.570;13.052;2023-03-04T00:37:42;4.40;99.90
23207;DHT22;11773;52.570;13.052;2023-03-04T00:40:12;4.30;99.90
23207;DHT22;11773;52.570;13.052;2023-03-04T00:42:41;4.20;99.90
23207;DHT22;11773;52.570;13.052;2023-03-04T00:45:11;4.30;99.90
23207;DHT22;11773;52.570;13.052;2023-03-04T00:47:40;4.30;99.90
23207;DHT22;11773;52.570;13.052;2023-03-04T00:50:10;4.40;99.90
23207;DHT22;11773;52.570;13.052;2023-03-04T00:52:40;4.30;99.90
23207;DHT22;11773;52.570;13.052;2023-03-04T00:55:09;4.20;99.90
23207;DHT22;11773;52.570;13.052;2023-03-04T00:57:39;4.20;99.90
23207;DHT22;11773;52.570;13.052;2023-03-04T01:00:09;4.30;99.90
23207;DHT22;11773;52.570;13.052;2023-03-04T01:02:40;4.40;99.90
23207;DHT22;11773;52.570;13.052;2023-03-04T01:05:10;4.30;99.90
23207;DHT22;11773;52.570;13.052;2023-03-04T01:07:39;4.50;99.90
23207;DHT22;11773;52.570;13.052;2023-03-04T01:10:10;4.40;99.90
23207;DHT22;11773;52.570;13.052;2023-03-04T01:12:42;4.60;99.90
23207;DHT22;11773;52.570;13.052;2023-03-04T01:15:13;4.60;99.90
23207;DHT22;11773;52.570;13.052;2023-03-04T01:17:42;4.50;99.90
23207;DHT22;11773;52.570;13.052;2023-03-04T01:20:12;4.70;99.90
23207;DHT22;11773;52.570;13.052;2023-03-04T01:22:42;4.50;99.90
23207;DHT22;11773;52.570;13.052;2023-03-04T01:25:12;4.60;99.90
23207;DHT22;11773;52.570;13.052;2023-03-04T01:27:41;4.60;99.90
23207;DHT22;11773;52.570;13.052;2023-03-04T01:30:11;4.60;99.90
23207;DHT22;11773;52.570;13.052;2023-03-04T01:32:41;4.70;99.90
23207;DHT22;11773;52.570;13.052;2023-03-04T01:35:10;4.60;99.90
23207;DHT22;11773;52.570;13.052;2023-03-04T01:37:40;4.60;99.90
23207;DHT22;11773;52.570;13.052;2023-03-04T01:40:10;4.70;99.90
23207;DHT22;11773;52.570;13.052;2023-03-04T01:42:42;4.80;99.90
23207;DHT22;11773;52.570;13.052;2023-03-04T01:45:14;4.70;99.90
23207;DHT22;11773;52.570;13.052;2023-03-04T01:47:47;4.70;99.90
23207;DHT22;11773;52.570;13.052;2023-03-04T01:50:31;4.70;99.90
23207;DHT22;11773;52.570;13.052;2023-03-04T01:52:58;4.80;99.90
23207;DHT22;11773;52.570;13.052;2023-03-04T01:55:28;4.70;99.90
23207;DHT22;11773;52.570;13.052;2023-03-04T01:57:58;4.80;99.90
23207;DHT22;11773;52.570;13.052;2023-03-04T02:00:30;4.80;99.90
23207;DHT22;11773;52.570;13.052;2023-03-04T02:03:07;4.90;99.90
23207;DHT22;11773;52.570;13.052;2023-03-04T02:05:44;4.80;99.90
23207;DHT22;11773;52.570;13.052;2023-03-04T02:08:17;4.90;99.90
23207;DHT22;11773;52.570;13.052;2023-03-04T02:10:49;5.00;99.90
23207;DHT22;11773;52.570;13.052;2023-03-04T02:13:19;5.00;99.90
23207;DHT22;11773;52.570;13.052;2023-03-04T02:15:49;5.10;99.90
23207;DHT22;11773;52.570;13.052;2023-03-04T02:18:23;5.10;99.90
23207;DHT22;11773;52.570;13.052;2023-03-04T02:23:54;5.20;99.90
23207;DHT22;11773;52.570;13.052;2023-03-04T02:26:42;5.00;99.90
23207;DHT22;11773;52.570;13.052;2023-03-04T02:29:15;5.10;99.90
23207;DHT22;11773;52.570;13.052;2023-03-04T02:31:50;5.00;99.90
23207;DHT22;11773;52.570;13.052;2023-03-04T02:34:30;5.10;99.90
23207;DHT22;11773;52.570;13.052;2023-03-04T02:37:02;5.10;99.90
23207;DHT22;11773;52.570;13.052;2023-03-04T02:39:38;5.00;99.90
23207;DHT22;11773;52.570;13.052;2023-03-04T02:42:13;5.00;99.90
23207;DHT22;11773;52.570;13.052;2023-03-04T02:44:44;5.10;99.90
23207;DHT22;11773;52.570;13.052;2023-03-04T02:47:17;5.10;99.90
23207;DHT22;11773;52.570;13.052;2023-03-04T02:49:47;5.10;99.90
23207;DHT22;11773;52.570;13.052;2023-03-04T02:52:19;5.10;99.90
23207;DHT22;11773;52.570;13.052;2023-03-04T02:54:50;5.10;99.90
23207;DHT22;11773;52.570;13.052;2023-03-04T02:57:19;5.10;99.90
23207;DHT22;11773;52.570;13.052;2023-03-04T02:59:49;5.10;99.90
23207;DHT22;11773;52.570;13.052;2023-03-04T03:02:18;5.10;99.90
23207;DHT22;11773;52.570;13.052;2023-03-04T03:04:48;5.20;99.90
23207;DHT22;11773;52.570;13.052;2023-03-04T03:07:17;5.20;99.90
23207;DHT22;11773;52.570;13.052;2023-03-04T03:09:47;5.20;99.90
23207;DHT22;11773;52.570;13.052;2023-03-04T03:12:16;5.30;99.90
23207;DHT22;11773;52.570;13.052;2023-03-04T03:14:46;5.30;99.90
23207;DHT22;11773;52.570;13.052;2023-03-04T03:17:15;5.30;99.90
23207;DHT22;11773;52.570;13.052;2023-03-04T03:19:45;5.40;99.90
23207;DHT22;11773;52.570;13.052;2023-03-04T03:22:14;5.40;99.90
23207;DHT22;11773;52.570;13.052;2023-03-04T03:24:44;5.40;99.90
23207;DHT22;11773;52.570;13.052;2023-03-04T03:27:13;5.40;99.90
23207;DHT22;11773;52.570;13.052;2023-03-04T03:29:43;5.40;99.90
23207;DHT22;11773;52.570;13.052;2023-03-04T03:32:12;5.40;99.90
23207;DHT22;11773;52.570;13.052;2023-03-04T03:34:41;5.40;99.90
23207;DHT22;11773;52.570;13.052;2023-03-04T03:37:12;5.30;99.90
23207;DHT22;11773;52.570;13.052;2023-03-04T03:39:42;5.30;99.90
23207;DHT22;11773;52.570;13.052;2023-03-04T03:42:11;5.30;99.90
23207;DHT22;11773;52.570;13.052;2023-03-04T03:44:41;5.30;99.90
23207;DHT22;11773;52.570;13.052;2023-03-04T03:47:10;5.40;99.90
23207;DHT22;11773;52.570;13.052;2023-03-04T03:49:40;5.40;99.90
23207;DHT22;11773;52.570;13.052;2023-03-04T03:52:09;5.50;99.90
23207;DHT22;11773;52.570;13.052;2023-03-04T03:54:39;5.50;99.90
23207;DHT22;11773;52.570;13.052;2023-03-04T03:57:08;5.50;99.90
23207;DHT22;11773;52.570;13.052;2023-03-04T03:59:37;5.60;99.90
23207;DHT22;11773;52.570;13.052;2023-03-04T04:02:07;5.50;99.90
23207;DHT22;11773;52.570;13.052;2023-03-04T04:04:37;5.60;99.90
23207;DHT22;11773;52.570;13.052;2023-03-04T04:07:06;5.50;99.90
23207;DHT22;11773;52.570;13.052;2023-03-04T04:09:36;5.50;99.90
23207;DHT22;11773;52.570;13.052;2023-03-04T04:12:06;5.60;99.90
23207;DHT22;11773;52.570;13.052;2023-03-04T04:14:35;5.60;99.90
23207;DHT22;11773;52.570;13.052;2023-03-04T04:17:05;5.60;99.90
23207;DHT22;11773;52.570;13.052;2023-03-04T04:19:35;5.60;99.90
23207;DHT22;11773;52.570;13.052;2023-03-04T04:22:05;5.60;99.90
23207;DHT22;11773;52.570;13.052;2023-03-04T04:24:36;5.60;99.90
23207;DHT22;11773;52.570;13.052;2023-03-04T04:27:05;5.60;99.90
23207;DHT22;11773;52.570;13.052;2023-03-04T04:29:35;5.70;99.90
23207;DHT22;11773;52.570;13.052;2023-03-04T04:32:04;5.70;99.90
23207;DHT22;11773;52.570;13.052;2023-03-04T04:34:35;5.70;99.90
23207;DHT22;11773;52.570;13.052;2023-03-04T04:37:04;5.70;99.90
23207;DHT22;11773;52.570;13.052;2023-03-04T04:39:53;5.80;99.90
23207;DHT22;11773;52.570;13.052;2023-03-04T04:42:23;5.70;99.90
23207;DHT22;11773;52.570;13.052;2023-03-04T04:44:53;5.80;99.90
23207;DHT22;11773;52.570;13.052;2023-03-04T04:47:24;5.80;99.90
23207;DHT22;11773;52.570;13.052;2023-03-04T04:49:53;5.80;99.90
23207;DHT22;11773;52.570;13.052;2023-03-04T04:52:23;5.90;99.90
23207;DHT22;11773;52.570;13.052;2023-03-04T04:54:52;5.80;99.90
23207;DHT22;11773;52.570;13.052;2023-03-04T04:57:22;6.00;99.90
23207;DHT22;11773;52.570;13.052;2023-03-04T04:59:51;5.90;99.90
23207;DHT22;11773;52.570;13.052;2023-03-04T05:02:21;5.70;99.90
23207;DHT22;11773;52.570;13.052;2023-03-04T05:04:50;5.70;99.90
23207;DHT22;11773;52.570;13.052;2023-03-04T05:07:20;5.80;99.90
23207;DHT22;11773;52.570;13.052;2023-03-04T05:09:50;5.90;99.90
23207;DHT22;11773;52.570;13.052;2023-03-04T05:12:19;5.90;99.90
23207;DHT22;11773;52.570;13.052;2023-03-04T05:14:49;5.90;99.90
23207;DHT22;11773;52.570;13.052;2023-03-04T05:17:18;5.90;99.90
23207;DHT22;11773;52.570;13.052;2023-03-04T05:19:48;5.90;99.90
23207;DHT22;11773;52.570;13.052;2023-03-04T05:22:17;5.80;99.90
23207;DHT22;11773;52.570;13.052;2023-03-04T05:24:47;5.80;99.90
23207;DHT22;11773;52.570;13.052;2023-03-04T05:27:16;5.80;99.90
23207;DHT22;11773;52.570;13.052;2023-03-04T05:29:46;5.90;99.90
23207;DHT22;11773;52.570;13.052;2023-03-04T05:32:15;5.90;99.90
23207;DHT22;11773;52.570;13.052;2023-03-04T05:34:45;5.80;99.90
23207;DHT22;11773;52.570;13.052;2023-03-04T05:37:14;5.80;99.90
23207;DHT22;11773;52.570;13.052;2023-03-04T05:39:44;5.90;99.90
23207;DHT22;11773;52.570;13.052;2023-03-04T05:42:13;5.90;99.90
23207;DHT22;11773;52.570;13.052;2023-03-04T05:44:43;5.80;99.90
23207;DHT22;11773;52.570;13.052;2023-03-04T05:47:12;5.90;99.90
23207;DHT22;11773;52.570;13.052;2023-03-04T05:49:42;5.90;99.90
23207;DHT22;11773;52.570;13.052;2023-03-04T05:52:11;5.90;99.90
23207;DHT22;11773;52.570;13.052;2023-03-04T05:54:40;5.80;99.90
23207;DHT22;11773;52.570;13.052;2023-03-04T05:57:10;5.90;99.90
23207;DHT22;11773;52.570;13.052;2023-03-04T05:59:39;6.00;99.90
23207;DHT22;11773;52.570;13.052;2023-03-04T06:02:09;5.90;99.90
23207;DHT22;11773;52.570;13.052;2023-03-04T06:04:38;5.80;99.90
23207;DHT22;11773;52.570;13.052;2023-03-04T06:07:08;5.90;99.90
23207;DHT22;11773;52.570;13.052;2023-03-04T06:09:37;5.90;99.90
23207;DHT22;11773;52.570;13.052;2023-03-04T06:12:07;5.90;99.90
23207;DHT22;11773;52.570;13.052;2023-03-04T06:14:36;5.80;99.90
23207;DHT22;11773;52.570;13.052;2023-03-04T06:17:06;5.80;99.90
23207;DHT22;11773;52.570;13.052;2023-03-04T06:19:35;5.80;99.90
23207;DHT22;11773;52.570;13.052;2023-03-04T06:22:05;5.80;99.90
23207;DHT22;11773;52.570;13.052;2023-03-04T06:24:35;5.80;99.90
23207;DHT22;11773;52.570;13.052;2023-03-04T06:27:05;5.90;99.90
23207;DHT22;11773;52.570;13.052;2023-03-04T06:29:35;6.00;99.90
23207;DHT22;11773;52.570;13.052;2023-03-04T06:32:04;6.00;99.90
23207;DHT22;11773;52.570;13.052;2023-03-04T06:34:34;6.10;99.90
23207;DHT22;11773;52.570;13.052;2023-03-04T06:37:03;6.00;99.90
23207;DHT22;11773;52.570;13.052;2023-03-04T06:39:33;6.00;99.90
23207;DHT22;11773;52.570;13.052;2023-03-04T06:42:03;6.10;99.90
23207;DHT22;11773;52.570;13.052;2023-03-04T06:44:32;6.10;99.90
23207;DHT22;11773;52.570;13.052;2023-03-04T06:47:02;6.20;99.90
23207;DHT22;11773;52.570;13.052;2023-03-04T06:49:31;6.30;99.90
23207;DHT22;11773;52.570;13.052;2023-03-04T06:52:01;6.20;99.90
23207;DHT22;11773;52.570;13.052;2023-03-04T06:54:31;6.30;99.90
23207;DHT22;11773;52.570;13.052;2023-03-04T06:57:00;6.30;99.90
23207;DHT22;11773;52.570;13.052;2023-03-04T06:59:30;6.30;99.90
23207;DHT22;11773;52.570;13.052;2023-03-04T07:02:00;6.30;99.90
23207;DHT22;11773;52.570;13.052;2023-03-04T07:04:29;6.30;99.90
23207;DHT22;11773;52.570;13.052;2023-03-04T07:06:59;6.20;99.90
23207;DHT22;11773;52.570;13.052;2023-03-04T07:09:28;6.30;99.90
23207;DHT22;11773;52.570;13.052;2023-03-04T07:11:58;6.20;99.90
23207;DHT22;11773;52.570;13.052;2023-03-04T07:14:27;6.30;99.90
23207;DHT22;11773;52.570;13.052;2023-03-04T07:16:56;6.40;99.90
23207;DHT22;11773;52.570;13.052;2023-03-04T07:19:26;6.50;99.90
23207;DHT22;11773;52.570;13.052;2023-03-04T07:21:56;6.40;99.90
23207;DHT22;11773;52.570;13.052;2023-03-04T07:24:25;6.40;99.90
23207;DHT22;11773;52.570;13.052;2023-03-04T07:26:55;6.20;99.90
23207;DHT22;11773;52.570;13.052;2023-03-04T07:29:25;6.40;99.90
23207;DHT22;11773;52.570;13.052;2023-03-04T07:31:54;6.40;99.90
23207;DHT22;11773;52.570;13.052;2023-03-04T07:34:24;6.20;99.90
23207;DHT22;11773;52.570;13.052;2023-03-04T07:36:54;6.20;99.90
23207;DHT22;11773;52.570;13.052;2023-03-04T07:39:23;6.30;99.90
23207;DHT22;11773;52.570;13.052;2023-03-04T07:41:53;6.30;99.90
23207;DHT22;11773;52.570;13.052;2023-03-04T07:44:23;6.30;99.90
23207;DHT22;11773;52.570;13.052;2023-03-04T07:46:52;6.40;99.90
23207;DHT22;11773;52.570;13.052;2023-03-04T07:49:22;6.50;99.90
23207;DHT22;11773;52.570;13.052;2023-03-04T07:51:51;6.40;99.90
23207;DHT22;11773;52.570;13.052;2023-03-04T07:54:21;6.60;99.90
23207;DHT22;11773;52.570;13.052;2023-03-04T07:56:50;6.60;99.90
23207;DHT22;11773;52.570;13.052;2023-03-04T07:59:20;6.60;99.90
23207;DHT22;11773;52.570;13.052;2023-03-04T08:01:49;6.60;99.90
23207;DHT22;11773;52.570;13.052;2023-03-04T08:04:19;6.60;99.90
23207;DHT22;11773;52.570;13.052;2023-03-04T08:06:48;6.50;99.90
23207;DHT22;11773;52.570;13.052;2023-03-04T08:09:18;6.60;99.90
23207;DHT22;11773;52.570;13.052;2023-03-04T08:11:47;6.50;99.90
23207;DHT22;11773;52.570;13.052;2023-03-04T08:14:17;6.60;99.90
23207;DHT22;11773;52.570;13.052;2023-03-04T08:16:46;6.70;99.90
23207;DHT22;11773;52.570;13.052;2023-03-04T08:19:16;6.70;99.90
23207;DHT22;11773;52.570;13.052;2023-03-04T08:21:45;6.80;99.90
23207;DHT22;11773;52.570;13.052;2023-03-04T08:24:15;6.80;99.90
23207;DHT22;11773;52.570;13.052;2023-03-04T08:26:46;6.90;99.90
23207;DHT22;11773;52.570;13.052;2023-03-04T08:29:20;6.80;99.90
23207;DHT22;11773;52.570;13.052;2023-03-04T08:31:51;6.80;99.90
23207;DHT22;11773;52.570;13.052;2023-03-04T08:34:24;6.90;99.90
23207;DHT22;11773;52.570;13.052;2023-03-04T08:36:55;6.90;99.90
23207;DHT22;11773;52.570;13.052;2023-03-04T08:39:24;6.90;99.90
23207;DHT22;11773;52.570;13.052;2023-03-04T08:41:54;6.90;99.90
23207;DHT22;11773;52.570;13.052;2023-03-04T08:44:23;7.00;99.90
23207;DHT22;11773;52.570;13.052;2023-03-04T08:46:53;7.00;99.90
23207;DHT22;11773;52.570;13.052;2023-03-04T08:49:22;7.00;99.90
23207;DHT22;11773;52.570;13.052;2023-03-04T08:51:52;7.10;99.90
23207;DHT22;11773;52.570;13.052;2023-03-04T08:54:21;7.10;99.90
23207;DHT22;11773;52.570;13.052;2023-03-04T08:56:51;7.10;99.90
23207;DHT22;11773;52.570;13.052;2023-03-04T08:59:20;7.10;99.90
23207;DHT22;11773;52.570;13.052;2023-03-04T09:01:50;7.00;99.90
23207;DHT22;11773;52.570;13.052;2023-03-04T09:04:19;7.10;99.90
23207;DHT22;11773;52.570;13.052;2023-03-04T09:06:49;7.20;99.90
23207;DHT22;11773;52.570;13.052;2023-03-04T09:09:20;7.10;99.90
23207;DHT22;11773;52.570;13.052;2023-03-04T09:11:49;7.20;99.90
23207;DHT22;11773;52.570;13.052;2023-03-04T09:14:19;7.10;99.90
23207;DHT22;11773;52.570;13.052;2023-03-04T09:16:48;7.20;99.90
23207;DHT22;11773;52.570;13.052;2023-03-04T09:19:18;7.30;99.90
23207;DHT22;11773;52.570;13.052;2023-03-04T09:21:47;7.30;99.90
23207;DHT22;11773;52.570;13.052;2023-03-04T09:24:17;7.20;99.90
23207;DHT22;11773;52.570;13.052;2023-03-04T09:26:51;7.10;99.90
23207;DHT22;11773;52.570;13.052;2023-03-04T09:29:21;7.20;99.90
23207;DHT22;11773;52.570;13.052;2023-03-04T09:31:51;7.10;99.90
23207;DHT22;11773;52.570;13.052;2023-03-04T09:34:21;7.20;99.90
23207;DHT22;11773;52.570;13.052;2023-03-04T09:36:50;7.20;99.90
23207;DHT22;11773;52.570;13.052;2023-03-04T09:39:20;7.30;99.90
23207;DHT22;11773;52.570;13.052;2023-03-04T09:41:52;7.30;99.90
23207;DHT22;11773;52.570;13.052;2023-03-04T09:44:32;7.30;99.90
23207;DHT22;11773;52.570;13.052;2023-03-04T09:47:11;7.30;99.90
23207;DHT22;11773;52.570;13.052;2023-03-04T09:49:43;7.30;99.90
23207;DHT22;11773;52.570;13.052;2023-03-04T09:55:20;7.30;99.90
23207;DHT22;11773;52.570;13.052;2023-03-04T09:58:14;7.30;99.90
23207;DHT22;11773;52.570;13.052;2023-03-04T10:01:06;7.30;99.90
23207;DHT22;11773;52.570;13.052;2023-03-04T10:04:00;7.50;99.90
23207;DHT22;11773;52.570;13.052;2023-03-04T10:06:32;7.40;99.90
23207;DHT22;11773;52.570;13.052;2023-03-04T10:09:23;7.40;99.90
23207;DHT22;11773;52.570;13.052;2023-03-04T10:14:36;7.50;99.90
23207;DHT22;11773;52.570;13.052;2023-03-04T10:17:13;7.60;99.90
23207;DHT22;11773;52.570;13.052;2023-03-04T10:19:58;7.60;99.90
23207;DHT22;11773;52.570;13.052;2023-03-04T10:22:47;7.70;99.90
23207;DHT22;11773;52.570;13.052;2023-03-04T10:25:26;7.70;99.90
23207;DHT22;11773;52.570;13.052;2023-03-04T10:28:00;7.70;99.90
23207;DHT22;11773;52.570;13.052;2023-03-04T10:30:37;7.70;99.90
23207;DHT22;11773;52.570;13.052;2023-03-04T10:33:14;7.70;99.90
23207;DHT22;11773;52.570;13.052;2023-03-04T10:38:38;7.70;99.90
23207;DHT22;11773;52.570;13.052;2023-03-04T10:41:12;7.70;99.90
23207;DHT22;11773;52.570;13.052;2023-03-04T10:46:39;7.80;99.90
23207;DHT22;11773;52.570;13.052;2023-03-04T10:49:12;7.80;99.90
23207;DHT22;11773;52.570;13.052;2023-03-04T10:51:45;7.80;99.90
23207;DHT22;11773;52.570;13.052;2023-03-04T10:54:26;7.90;99.90
23207;DHT22;11773;52.570;13.052;2023-03-04T10:57:05;8.00;99.90
23207;DHT22;11773;52.570;13.052;2023-03-04T10:59:55;7.90;99.90
23207;DHT22;11773;52.570;13.052;2023-03-04T11:02:45;8.00;99.90
23207;DHT22;11773;52.570;13.052;2023-03-04T11:05:19;8.00;99.90
23207;DHT22;11773;52.570;13.052;2023-03-04T11:07:52;7.80;99.90
23207;DHT22;11773;52.570;13.052;2023-03-04T11:13:15;7.90;99.90
23207;DHT22;11773;52.570;13.052;2023-03-04T11:16:02;8.00;99.90
23207;DHT22;11773;52.570;13.052;2023-03-04T11:18:51;7.90;99.90
23207;DHT22;11773;52.570;13.052;2023-03-04T11:21:25;8.00;99.90
23207;DHT22;11773;52.570;13.052;2023-03-04T11:24:03;7.90;99.90
23207;DHT22;11773;52.570;13.052;2023-03-04T11:26:49;7.80;99.90
23207;DHT22;11773;52.570;13.052;2023-03-04T11:29:30;7.80;99.90
23207;DHT22;11773;52.570;13.052;2023-03-04T11:32:10;7.80;99.90
23207;DHT22;11773;52.570;13.052;2023-03-04T11:34:45;7.80;99.90
23207;DHT22;11773;52.570;13.052;2023-03-04T11:40:59;7.80;99.90
23207;DHT22;11773;52.570;13.052;2023-03-04T11:43:44;8.00;99.90
23207;DHT22;11773;52.570;13.052;2023-03-04T11:46:50;7.80;99.90
23207;DHT22;11773;52.570;13.052;2023-03-04T11:52:47;7.90;99.90
23207;DHT22;11773;52.570;13.052;2023-03-04T11:58:18;7.80;99.90
23207;DHT22;11773;52.570;13.052;2023-03-04T12:01:14;7.80;99.90
23207;DHT22;11773;52.570;13.052;2023-03-04T12:04:07;7.70;99.90
23207;DHT22;11773;52.570;13.052;2023-03-04T12:06:56;7.70;99.90
23207;DHT22;11773;52.570;13.052;2023-03-04T12:09:39;7.90;99.90
23207;DHT22;11773;52.570;13.052;2023-03-04T12:12:33;7.90;99.90
23207;DHT22;11773;52.570;13.052;2023-03-04T12:15:19;7.80;99.90
23207;DHT22;11773;52.570;13.052;2023-03-04T12:18:19;8.00;99.90
23207;DHT22;11773;52.570;13.052;2023-03-04T12:24:06;8.00;99.90
23207;DHT22;11773;52.570;13.052;2023-03-04T12:26:47;7.90;99.90
23207;DHT22;11773;52.570;13.052;2023-03-04T12:32:43;7.80;99.90
23207;DHT22;11773;52.570;13.052;2023-03-04T12:35:37;7.80;99.90
23207;DHT22;11773;52.570;13.052;2023-03-04T12:41:28;8.00;99.90
23207;DHT22;11773;52.570;13.052;2023-03-04T12:44:18;8.10;99.90
23207;DHT22;11773;52.570;13.052;2023-03-04T12:47:06;8.10;99.90
23207;DHT22;11773;52.570;13.052;2023-03-04T12:49:54;8.10;99.90
23207;DHT22;11773;52.570;13.052;2023-03-04T12:52:58;7.90;99.90
23207;DHT22;11773;52.570;13.052;2023-03-04T12:55:45;7.90;99.90
23207;DHT22;11773;52.570;13.052;2023-03-04T12:58:33;7.80;99.90
23207;DHT22;11773;52.570;13.052;2023-03-04T13:03:57;8.10;99.90
23207;DHT22;11773;52.570;13.052;2023-03-04T13:09:29;8.00;99.90
23207;DHT22;11773;52.570;13.052;2023-03-04T13:12:15;8.00;99.90
23207;DHT22;11773;52.570;13.052;2023-03-04T13:21:07;8.10;99.90
23207;DHT22;11773;52.570;13.052;2023-03-04T13:23:41;8.10;99.90
23207;DHT22;11773;52.570;13.052;2023-03-04T13:26:30;8.10;99.90
23207;DHT22;11773;52.570;13.052;2023-03-04T13:32:04;8.10;99.90
23207;DHT22;11773;52.570;13.052;2023-03-04T13:34:51;7.90;99.90
23207;DHT22;11773;52.570;13.052;2023-03-04T13:40:24;8.20;99.90
23207;DHT22;11773;52.570;13.052;2023-03-04T13:43:26;8.10;99.90
23207;DHT22;11773;52.570;13.052;2023-03-04T13:45:57;8.00;99.90
23207;DHT22;11773;52.570;13.052;2023-03-04T13:48:32;7.90;99.90
23207;DHT22;11773;52.570;13.052;2023-03-04T13:51:11;8.10;99.90
23207;DHT22;11773;52.570;13.052;2023-03-04T13:53:39;8.10;99.90
23207;DHT22;11773;52.570;13.052;2023-03-04T14:02:00;7.90;99.90
23207;DHT22;11773;52.570;13.052;2023-03-04T14:04:42;8.00;99.90
23207;DHT22;11773;52.570;13.052;2023-03-04T14:07:28;8.00;99.90
23207;DHT22;11773;52.570;13.052;2023-03-04T14:10:01;8.00;99.90
23207;DHT22;11773;52.570;13.052;2023-03-04T14:12:39;8.00;99.90
23207;DHT22;11773;52.570;13.052;2023-03-04T14:15:26;8.00;99.90
23207;DHT22;11773;52.570;13.052;2023-03-04T14:18:00;8.10;99.90
23207;DHT22;11773;52.570;13.052;2023-03-04T14:20:36;8.10;99.90
23207;DHT22;11773;52.570;13.052;2023-03-04T14:23:30;8.20;99.90
23207;DHT22;11773;52.570;13.052;2023-03-04T14:26:05;8.20;99.90
23207;DHT22;11773;52.570;13.052;2023-03-04T14:28:47;7.90;99.90
23207;DHT22;11773;52.570;13.052;2023-03-04T14:31:21;7.90;99.90
23207;DHT22;11773;52.570;13.052;2023-03-04T14:33:55;7.60;99.90
23207;DHT22;11773;52.570;13.052;2023-03-04T14:36:31;7.70;99.90
23207;DHT22;11773;52.570;13.052;2023-03-04T14:39:04;7.70;99.90
23207;DHT22;11773;52.570;13.052;2023-03-04T14:41:38;7.70;99.90
23207;DHT22;11773;52.570;13.052;2023-03-04T14:44:36;7.70;99.90
23207;DHT22;11773;52.570;13.052;2023-03-04T14:47:27;7.70;99.90
23207;DHT22;11773;52.570;13.052;2023-03-04T14:50:14;7.70;99.90
23207;DHT22;11773;52.570;13.052;2023-03-04T14:52:48;7.60;99.90
23207;DHT22;11773;52.570;13.052;2023-03-04T14:55:23;7.50;99.90
23207;DHT22;11773;52.570;13.052;2023-03-04T15:00:38;7.50;99.90
23207;DHT22;11773;52.570;13.052;2023-03-04T15:03:19;7.70;99.90
23207;DHT22;11773;52.570;13.052;2023-03-04T15:08:46;7.90;99.90
23207;DHT22;11773;52.570;13.052;2023-03-04T15:11:24;7.90;99.90
23207;DHT22;11773;52.570;13.052;2023-03-04T15:13:58;7.90;99.90
23207;DHT22;11773;52.570;13.052;2023-03-04T15:16:51;7.90;99.90
23207;DHT22;11773;52.570;13.052;2023-03-04T15:19:05;7.90;99.90
23207;DHT22;11773;52.570;13.052;2023-03-04T15:21:38;8.00;99.90
23207;DHT22;11773;52.570;13.052;2023-03-04T15:24:09;7.70;99.90
23207;DHT22;11773;52.570;13.052;2023-03-04T15:26:41;7.80;99.90
23207;DHT22;11773;52.570;13.052;2023-03-04T15:29:15;7.70;99.90
23207;DHT22;11773;52.570;13.052;2023-03-04T15:31:47;7.90;99.90
23207;DHT22;11773;52.570;13.052;2023-03-04T15:34:19;8.00;99.90
23207;DHT22;11773;52.570;13.052;2023-03-04T15:36:49;8.10;99.90
23207;DHT22;11773;52.570;13.052;2023-03-04T15:39:19;7.90;99.90
23207;DHT22;11773;52.570;13.052;2023-03-04T15:41:49;8.10;99.90
23207;DHT22;11773;52.570;13.052;2023-03-04T15:44:19;7.90;99.90
23207;DHT22;11773;52.570;13.052;2023-03-04T15:46:49;7.90;99.90
23207;DHT22;11773;52.570;13.052;2023-03-04T15:49:18;8.00;99.90
23207;DHT22;11773;52.570;13.052;2023-03-04T15:51:48;8.00;99.90
23207;DHT22;11773;52.570;13.052;2023-03-04T15:54:26;7.90;99.90
23207;DHT22;11773;52.570;13.052;2023-03-04T15:56:52;7.60;99.90
23207;DHT22;11773;52.570;13.052;2023-03-04T15:59:24;7.80;99.90
23207;DHT22;11773;52.570;13.052;2023-03-04T16:01:54;7.60;99.90
23207;DHT22;11773;52.570;13.052;2023-03-04T16:04:23;7.70;99.90
23207;DHT22;11773;52.570;13.052;2023-03-04T16:06:53;7.70;99.90
23207;DHT22;11773;52.570;13.052;2023-03-04T16:09:24;7.80;99.90
23207;DHT22;11773;52.570;13.052;2023-03-04T16:11:53;7.90;99.90
23207;DHT22;11773;52.570;13.052;2023-03-04T16:14:25;7.80;99.90
23207;DHT22;11773;52.570;13.052;2023-03-04T16:16:54;7.80;99.90
23207;DHT22;11773;52.570;13.052;2023-03-04T16:19:24;7.70;99.90
23207;DHT22;11773;52.570;13.052;2023-03-04T16:21:54;7.60;99.90
23207;DHT22;11773;52.570;13.052;2023-03-04T16:24:23;7.70;99.90
23207;DHT22;11773;52.570;13.052;2023-03-04T16:26:53;7.70;99.90
23207;DHT22;11773;52.570;13.052;2023-03-04T16:29:22;7.70;99.90
23207;DHT22;11773;52.570;13.052;2023-03-04T16:31:53;7.70;99.90
23207;DHT22;11773;52.570;13.052;2023-03-04T16:34:22;7.80;99.90
23207;DHT22;11773;52.570;13.052;2023-03-04T16:36:52;7.50;99.90
23207;DHT22;11773;52.570;13.052;2023-03-04T16:39:23;7.50;99.90
23207;DHT22;11773;52.570;13.052;2023-03-04T16:41:53;7.40;99.90
23207;DHT22;11773;52.570;13.052;2023-03-04T16:44:22;7.40;99.90
23207;DHT22;11773;52.570;13.052;2023-03-04T16:46:52;7.60;99.90
23207;DHT22;11773;52.570;13.052;2023-03-04T16:49:21;7.70;99.90
23207;DHT22;11773;52.570;13.052;2023-03-04T16:51:51;7.50;99.90
23207;DHT22;11773;52.570;13.052;2023-03-04T16:54:24;7.50;99.90
23207;DHT22;11773;52.570;13.052;2023-03-04T16:56:55;7.60;99.90
23207;DHT22;11773;52.570;13.052;2023-03-04T16:59:26;7.50;99.90
23207;DHT22;11773;52.570;13.052;2023-03-04T17:01:56;7.40;99.90
23207;DHT22;11773;52.570;13.052;2023-03-04T17:04:25;7.40;99.90
23207;DHT22;11773;52.570;13.052;2023-03-04T17:06:56;7.30;99.90
23207;DHT22;11773;52.570;13.052;2023-03-04T17:09:26;7.30;99.90
23207;DHT22;11773;52.570;13.052;2023-03-04T17:11:55;7.50;99.90